createdAt,value
2023-04-16T00:01:25.409Z,15.60
2023-04-16T00:03:52.164Z,15.63
2023-04-16T00:06:18.756Z,14.07
2023-04-16T00:08:45.241Z,15.48
2023-04-16T00:11:11.732Z,15.00
2023-04-16T00:13:38.264Z,14.88
2023-04-16T00:16:05.035Z,15.35
2023-04-16T00:18:32.263Z,15.30
2023-04-16T00:20:59.557Z,14.23
2023-04-16T00:23:26.134Z,14.73
2023-04-16T00:25:53.839Z,14.63
2023-04-16T00:28:21.238Z,14.60
2023-04-16T00:30:47.681Z,15.18
2023-04-16T00:33:14.291Z,14.82
2023-04-16T00:35:40.871Z,15.15
2023-04-16T00:38:07.415Z,15.82
2023-04-16T00:40:33.812Z,15.15
2023-04-16T00:43:00.378Z,15.05
2023-04-16T00:45:27.341Z,14.95
2023-04-16T00:47:53.916Z,15.70
2023-04-16T00:50:20.669Z,14.63
2023-04-16T00:52:50.710Z,15.05
2023-04-16T00:55:18.956Z,14.57
2023-04-16T00:57:46.057Z,15.93
2023-04-16T01:00:13.119Z,14.70
2023-04-16T01:02:39.906Z,14.10
2023-04-16T01:05:06.840Z,14.57
2023-04-16T01:07:33.378Z,15.27
2023-04-16T01:09:59.939Z,13.90
2023-04-16T01:12:27.377Z,14.75
2023-04-16T01:14:53.955Z,14.48
2023-04-16T01:17:20.518Z,14.73
2023-04-16T01:19:46.940Z,15.25
2023-04-16T01:22:13.430Z,15.43
2023-04-16T01:24:40.508Z,15.43
2023-04-16T01:27:06.973Z,15.10
2023-04-16T01:29:33.571Z,14.75
2023-04-16T01:31:59.979Z,14.45
2023-04-16T01:34:26.538Z,14.27
2023-04-16T01:36:53.177Z,13.82
2023-04-16T01:39:19.814Z,14.68
2023-04-16T01:41:46.545Z,14.52
2023-04-16T01:44:12.930Z,15.27
2023-04-16T01:46:39.800Z,13.98
2023-04-16T01:49:07.466Z,15.25
2023-04-16T01:51:34.252Z,14.77
2023-04-16T01:54:01.187Z,14.90
2023-04-16T01:56:27.675Z,14.50
2023-04-16T01:58:54.099Z,14.63
2023-04-16T02:01:20.701Z,14.88
2023-04-16T02:03:47.768Z,15.30
2023-04-16T02:06:15.029Z,14.73
2023-04-16T02:08:41.775Z,14.93
2023-04-16T02:11:08.262Z,14.48
2023-04-16T02:13:34.890Z,14.98
2023-04-16T02:16:02.513Z,14.30
2023-04-16T02:18:29.074Z,14.90
2023-04-16T02:20:58.595Z,17.35
2023-04-16T02:23:25.070Z,14.43
2023-04-16T02:25:51.639Z,14.48
2023-04-16T02:28:18.205Z,13.93
2023-04-16T02:30:44.773Z,13.98
2023-04-16T02:33:12.576Z,14.57
2023-04-16T02:35:40.158Z,14.95
2023-04-16T02:38:07.614Z,14.23
2023-04-16T02:40:34.251Z,15.00
2023-04-16T02:43:00.847Z,14.52
2023-04-16T02:45:27.507Z,14.38
2023-04-16T02:47:53.970Z,14.68
2023-04-16T02:50:20.503Z,15.07
2023-04-16T02:52:46.992Z,14.60
2023-04-16T02:55:13.370Z,14.05
2023-04-16T02:57:39.903Z,14.90
2023-04-16T03:00:07.054Z,14.07
2023-04-16T03:02:33.620Z,14.63
2023-04-16T03:05:00.254Z,15.23
2023-04-16T03:07:26.766Z,14.88
2023-04-16T03:09:53.182Z,14.32
2023-04-16T03:12:19.618Z,13.63
2023-04-16T03:14:46.154Z,14.05
2023-04-16T03:17:12.620Z,15.30
2023-04-16T03:19:39.009Z,15.00
2023-04-16T03:22:05.458Z,14.63
2023-04-16T03:24:32.234Z,14.50
2023-04-16T03:26:59.004Z,16.10
2023-04-16T03:29:26.766Z,14.73
2023-04-16T03:31:53.424Z,15.25
2023-04-16T03:34:19.829Z,15.65
2023-04-16T03:36:46.400Z,15.32
2023-04-16T03:39:12.970Z,16.10
2023-04-16T03:41:39.398Z,16.10
2023-04-16T03:44:05.812Z,16.20
2023-04-16T03:46:32.341Z,16.52
2023-04-16T03:48:58.817Z,15.35
2023-04-16T03:51:26.425Z,16.33
2023-04-16T03:53:52.991Z,16.35
2023-04-16T03:56:19.489Z,16.00
2023-04-16T03:58:45.916Z,16.23
2023-04-16T04:01:12.407Z,16.10
2023-04-16T04:03:38.931Z,15.55
2023-04-16T04:06:09.023Z,15.18
2023-04-16T04:08:35.664Z,16.13
2023-04-16T04:11:02.115Z,16.42
2023-04-16T04:13:28.592Z,15.98
2023-04-16T04:15:55.146Z,16.15
2023-04-16T04:18:21.616Z,15.55
2023-04-16T04:20:48.062Z,15.55
2023-04-16T04:23:14.480Z,14.90
2023-04-16T04:25:40.924Z,14.98
2023-04-16T04:28:07.377Z,14.15
2023-04-16T04:30:35.746Z,14.90
2023-04-16T04:33:02.367Z,15.63
2023-04-16T04:35:28.856Z,15.07
2023-04-16T04:37:55.265Z,14.40
2023-04-16T04:40:21.675Z,15.98
2023-04-16T04:42:48.233Z,15.25
2023-04-16T04:45:14.789Z,15.05
2023-04-16T04:47:41.533Z,15.50
2023-04-16T04:50:08.323Z,15.30
2023-04-16T04:52:34.821Z,15.32
2023-04-16T04:55:01.307Z,14.52
2023-04-16T04:57:27.722Z,15.45
2023-04-16T04:59:54.315Z,15.15
2023-04-16T05:02:20.975Z,14.75
2023-04-16T05:04:48.722Z,14.98
2023-04-16T05:07:16.423Z,14.98
2023-04-16T05:09:42.925Z,15.20
2023-04-16T05:12:09.365Z,14.55
2023-04-16T05:14:36.362Z,15.32
2023-04-16T05:17:04.123Z,13.95
2023-04-16T05:19:30.592Z,13.57
2023-04-16T05:21:57.096Z,16.98
2023-04-16T05:24:23.517Z,13.95
2023-04-16T05:26:49.949Z,12.93
2023-04-16T05:29:16.350Z,14.32
2023-04-16T05:31:42.789Z,13.90
2023-04-16T05:34:10.313Z,13.27
2023-04-16T05:36:36.794Z,14.82
2023-04-16T05:39:03.515Z,14.23
2023-04-16T05:41:30.003Z,13.27
2023-04-16T05:43:56.491Z,13.93
2023-04-16T05:46:23.122Z,14.52
2023-04-16T05:48:49.517Z,14.25
2023-04-16T05:51:15.998Z,14.05
2023-04-16T05:53:42.660Z,13.40
2023-04-16T05:56:09.282Z,13.70
2023-04-16T05:58:35.708Z,14.10
2023-04-16T06:01:02.179Z,14.73
2023-04-16T06:03:28.678Z,14.63
2023-04-16T06:05:55.442Z,14.18
2023-04-16T06:08:22.052Z,14.95
2023-04-16T06:10:49.095Z,14.48
2023-04-16T06:13:15.777Z,14.50
2023-04-16T06:15:42.302Z,14.45
2023-04-16T06:18:09.000Z,14.10
2023-04-16T06:20:35.701Z,13.32
2023-04-16T06:23:02.216Z,13.88
2023-04-16T06:25:28.720Z,15.43
2023-04-16T06:27:55.775Z,15.80
2023-04-16T06:30:22.318Z,14.88
2023-04-16T06:32:49.165Z,15.25
2023-04-16T06:35:16.021Z,13.65
2023-04-16T06:37:42.589Z,14.02
2023-04-16T06:40:09.623Z,14.30
2023-04-16T06:42:37.550Z,20.20
2023-04-16T06:45:09.164Z,52.22
2023-04-16T06:47:35.776Z,44.83
2023-04-16T06:50:02.190Z,58.63
2023-04-16T06:52:29.236Z,23.50
2023-04-16T06:54:56.648Z,38.97
2023-04-16T06:57:23.419Z,21.25
2023-04-16T06:59:49.831Z,32.30
2023-04-16T07:02:18.049Z,47.63
2023-04-16T07:04:44.667Z,63.83
2023-04-16T07:07:11.310Z,54.35
2023-04-16T07:09:37.797Z,39.55
2023-04-16T07:12:06.519Z,100.65
2023-04-16T07:14:35.335Z,99.60
2023-04-16T07:17:01.968Z,70.15
2023-04-16T07:19:32.390Z,31.52
2023-04-16T07:24:26.154Z,32.20
2023-04-16T07:26:53.903Z,36.05
2023-04-16T07:29:20.554Z,28.90
2023-04-16T07:31:47.244Z,26.60
2023-04-16T07:34:13.682Z,19.13
2023-04-16T07:36:40.384Z,17.13
2023-04-16T07:39:06.791Z,17.13
2023-04-16T07:41:33.584Z,14.90
2023-04-16T07:44:00.258Z,16.50
2023-04-16T07:46:33.134Z,15.98
2023-04-16T07:49:06.290Z,15.48
2023-04-16T07:51:33.521Z,17.15
2023-04-16T07:54:00.047Z,16.10
2023-04-16T07:56:29.763Z,16.17
2023-04-16T07:58:56.397Z,14.95
2023-04-16T08:01:22.881Z,14.40
2023-04-16T08:03:49.568Z,15.23
2023-04-16T08:06:16.095Z,14.75
2023-04-16T08:08:42.690Z,15.63
2023-04-16T08:11:11.913Z,14.55
2023-04-16T08:13:38.392Z,13.82
2023-04-16T08:16:05.256Z,14.15
2023-04-16T08:18:31.729Z,13.95
2023-04-16T08:20:58.141Z,13.63
2023-04-16T08:23:24.706Z,13.85
2023-04-16T08:25:52.930Z,14.23
2023-04-16T08:28:19.490Z,15.45
2023-04-16T08:30:46.327Z,14.35
2023-04-16T08:33:14.316Z,13.85
2023-04-16T08:35:41.286Z,14.50
2023-04-16T08:38:09.912Z,14.45
2023-04-16T08:40:39.808Z,15.50
2023-04-16T08:43:11.208Z,14.10
2023-04-16T08:45:38.353Z,13.38
2023-04-16T08:48:06.187Z,13.63
2023-04-16T08:50:37.536Z,13.32
2023-04-16T08:53:09.179Z,13.30
2023-04-16T08:55:41.154Z,12.90
2023-04-16T08:58:12.358Z,13.13
2023-04-16T09:00:41.035Z,12.65
2023-04-16T09:03:09.269Z,11.68
2023-04-16T09:05:36.225Z,12.98
2023-04-16T09:08:02.747Z,13.07
2023-04-16T09:10:29.192Z,11.68
2023-04-16T09:12:57.647Z,12.60
2023-04-16T09:15:27.754Z,12.68
2023-04-16T09:17:56.462Z,12.48
2023-04-16T09:20:23.109Z,25.15
2023-04-16T09:22:49.543Z,34.95
2023-04-16T09:25:16.210Z,15.68
2023-04-16T09:27:42.737Z,13.98
2023-04-16T09:30:22.709Z,14.55
2023-04-16T09:32:50.711Z,13.20
2023-04-16T09:35:18.730Z,13.75
2023-04-16T09:37:55.884Z,13.18
2023-04-16T09:40:27.375Z,11.60
2023-04-16T09:42:57.915Z,13.57
2023-04-16T09:47:51.139Z,12.25
2023-04-16T09:50:19.726Z,13.48
2023-04-16T09:52:50.665Z,12.05
2023-04-16T09:55:22.773Z,13.40
2023-04-16T09:57:49.271Z,13.10
2023-04-16T10:00:18.812Z,12.02
2023-04-16T10:02:45.955Z,12.52
2023-04-16T10:05:17.757Z,12.82
2023-04-16T10:07:44.218Z,11.85
2023-04-16T10:10:10.882Z,13.55
2023-04-16T10:12:37.338Z,14.25
2023-04-16T10:15:04.902Z,12.18
2023-04-16T10:17:31.661Z,12.50
2023-04-16T10:19:58.566Z,13.57
2023-04-16T10:22:26.263Z,11.75
2023-04-16T10:24:53.524Z,12.48
2023-04-16T10:27:20.586Z,13.55
2023-04-16T10:29:47.823Z,12.60
2023-04-16T10:32:14.869Z,12.45
2023-04-16T10:34:41.862Z,12.07
2023-04-16T10:37:08.346Z,11.45
2023-04-16T10:39:39.099Z,11.90
2023-04-16T10:42:11.129Z,11.68
2023-04-16T10:44:38.178Z,11.85
2023-04-16T10:47:12.428Z,12.57
2023-04-16T10:49:39.433Z,12.07
2023-04-16T10:52:19.110Z,11.07
2023-04-16T10:54:47.864Z,11.40
2023-04-16T10:57:19.832Z,13.15
2023-04-16T10:59:49.192Z,11.68
2023-04-16T11:02:18.673Z,13.73
2023-04-16T11:04:47.346Z,11.02
2023-04-16T11:07:14.055Z,14.38
2023-04-16T11:10:02.166Z,12.57
2023-04-16T11:12:37.548Z,11.90
2023-04-16T11:15:08.565Z,11.43
2023-04-16T11:17:46.448Z,11.75
2023-04-16T11:20:22.380Z,12.10
2023-04-16T11:22:50.071Z,11.05
2023-04-16T11:25:37.558Z,12.23
2023-04-16T11:28:03.995Z,10.90
2023-04-16T11:30:38.640Z,10.88
2023-04-16T11:33:07.830Z,11.48
2023-04-16T11:35:34.302Z,11.32
2023-04-16T11:38:00.876Z,14.13
2023-04-16T11:40:33.789Z,11.38
2023-04-16T11:43:14.242Z,11.70
2023-04-16T11:48:48.640Z,12.30
2023-04-16T11:51:15.417Z,11.77
2023-04-16T11:53:50.550Z,11.13
2023-04-16T11:56:28.706Z,11.05
2023-04-16T11:59:13.448Z,11.45
2023-04-16T12:01:41.762Z,11.63
2023-04-16T12:04:09.198Z,11.68
2023-04-16T12:06:36.388Z,11.88
2023-04-16T12:09:23.939Z,11.77
2023-04-16T12:11:50.592Z,11.32
2023-04-16T12:14:17.259Z,11.55
2023-04-16T12:16:43.779Z,11.55
2023-04-16T12:19:12.357Z,11.25
2023-04-16T12:21:43.910Z,11.57
2023-04-16T12:24:15.398Z,12.13
2023-04-16T12:26:47.142Z,11.73
2023-04-16T12:29:21.645Z,11.98
2023-04-16T12:31:49.485Z,11.70
2023-04-16T12:34:17.268Z,11.57
2023-04-16T12:36:44.831Z,11.10
2023-04-16T12:39:12.626Z,12.25
2023-04-16T12:41:41.069Z,11.65
2023-04-16T12:44:15.973Z,12.15
2023-04-16T12:46:42.936Z,11.32
2023-04-16T12:49:11.200Z,10.90
2023-04-16T12:51:39.699Z,10.85
2023-04-16T12:54:10.004Z,11.50
2023-04-16T12:56:37.081Z,10.88
2023-04-16T12:59:03.664Z,11.25
2023-04-16T13:01:30.758Z,10.43
2023-04-16T13:03:57.568Z,10.68
2023-04-16T13:06:26.308Z,11.07
2023-04-16T13:08:54.527Z,11.05
2023-04-16T13:11:20.982Z,11.48
2023-04-16T13:13:47.497Z,11.15
2023-04-16T13:16:14.033Z,11.52
2023-04-16T13:18:41.092Z,10.20
2023-04-16T13:21:08.227Z,11.38
2023-04-16T13:23:35.206Z,11.73
2023-04-16T13:26:01.713Z,10.93
2023-04-16T13:28:28.620Z,10.63
2023-04-16T13:30:55.430Z,10.43
2023-04-16T13:33:22.039Z,16.35
2023-04-16T13:35:51.636Z,22.35
2023-04-16T13:38:18.310Z,12.38
2023-04-16T13:40:45.955Z,14.55
2023-04-16T13:43:13.737Z,18.17
2023-04-16T13:45:40.312Z,17.73
2023-04-16T13:48:06.821Z,17.58
2023-04-16T13:50:33.280Z,13.20
2023-04-16T13:52:59.705Z,20.25
2023-04-16T13:55:26.207Z,13.68
2023-04-16T13:57:53.370Z,12.25
2023-04-16T14:00:20.396Z,12.95
2023-04-16T14:02:48.583Z,11.23
2023-04-16T14:05:15.749Z,12.18
2023-04-16T14:07:42.267Z,10.70
2023-04-16T14:10:09.299Z,13.55
2023-04-16T14:12:36.992Z,11.65
2023-04-16T14:15:04.713Z,11.50
2023-04-16T14:17:31.425Z,10.63
2023-04-16T14:19:58.375Z,10.60
2023-04-16T14:22:24.898Z,11.18
2023-04-16T14:24:51.619Z,10.63
2023-04-16T14:27:18.184Z,10.25
2023-04-16T14:29:46.421Z,9.60
2023-04-16T14:32:13.238Z,10.85
2023-04-16T14:34:40.010Z,10.80
2023-04-16T14:37:06.775Z,10.52
2023-04-16T14:39:33.154Z,11.15
2023-04-16T14:41:59.619Z,10.60
2023-04-16T14:44:26.119Z,10.75
2023-04-16T14:46:52.564Z,12.35
2023-04-16T14:49:18.963Z,9.88
2023-04-16T14:51:46.331Z,10.43
2023-04-16T14:54:12.735Z,9.77
2023-04-16T14:56:39.126Z,11.57
2023-04-16T14:59:05.751Z,10.77
2023-04-16T15:01:33.348Z,11.10
2023-04-16T15:04:02.018Z,11.52
2023-04-16T15:06:28.785Z,11.15
2023-04-16T15:08:55.218Z,11.60
2023-04-16T15:11:21.588Z,11.55
2023-04-16T15:13:47.994Z,11.57
2023-04-16T15:16:14.536Z,11.63
2023-04-16T15:18:41.102Z,11.73
2023-04-16T15:21:07.544Z,12.25
2023-04-16T15:23:33.954Z,11.18
2023-04-16T15:26:00.318Z,12.88
2023-04-16T15:28:27.126Z,12.07
2023-04-16T15:30:53.520Z,11.93
2023-04-16T15:33:22.997Z,11.07
2023-04-16T15:35:51.416Z,11.63
2023-04-16T15:38:19.832Z,11.30
2023-04-16T15:40:46.326Z,11.77
2023-04-16T15:43:12.822Z,12.00
2023-04-16T15:45:39.187Z,12.77
2023-04-16T15:48:06.016Z,12.07
2023-04-16T15:50:33.089Z,11.73
2023-04-16T15:52:59.563Z,11.93
2023-04-16T15:55:26.514Z,11.50
2023-04-16T15:57:52.890Z,11.88
2023-04-16T16:00:21.232Z,11.27
2023-04-16T16:02:47.815Z,12.90
2023-04-16T16:05:14.943Z,10.95
2023-04-16T16:07:42.007Z,11.80
2023-04-16T16:10:09.842Z,11.10
2023-04-16T16:12:36.580Z,12.02
2023-04-16T16:15:03.324Z,11.80
2023-04-16T16:17:29.833Z,10.80
2023-04-16T16:19:57.423Z,10.65
2023-04-16T16:22:24.588Z,10.98
2023-04-16T16:24:51.672Z,10.52
2023-04-16T16:27:19.126Z,10.52
2023-04-16T16:29:45.754Z,10.50
2023-04-16T16:32:12.484Z,11.25
2023-04-16T16:34:39.031Z,11.13
2023-04-16T16:37:05.934Z,10.80
2023-04-16T16:39:33.073Z,10.90
2023-04-16T16:41:59.994Z,10.90
2023-04-16T16:44:27.118Z,11.13
2023-04-16T16:46:53.996Z,10.65
2023-04-16T16:49:20.451Z,11.23
2023-04-16T16:51:48.209Z,10.55
2023-04-16T16:54:14.978Z,10.18
2023-04-16T16:56:41.493Z,11.18
2023-04-16T16:59:08.831Z,10.55
2023-04-16T17:01:35.595Z,10.93
2023-04-16T17:04:02.576Z,10.98
2023-04-16T17:06:29.138Z,10.60
2023-04-16T17:08:55.835Z,11.85
2023-04-16T17:11:22.256Z,12.35
2023-04-16T17:13:48.807Z,10.75
2023-04-16T17:16:17.552Z,10.68
2023-04-16T17:18:44.038Z,11.00
2023-04-16T17:21:10.402Z,11.05
2023-04-16T17:23:37.392Z,11.18
2023-04-16T17:26:04.787Z,11.93
2023-04-16T17:28:31.258Z,11.90
2023-04-16T17:30:57.675Z,11.77
2023-04-16T17:33:24.082Z,11.50
2023-04-16T17:35:50.491Z,11.25
2023-04-16T17:38:16.907Z,11.00
2023-04-16T17:40:43.393Z,11.70
2023-04-16T17:43:09.792Z,11.40
2023-04-16T17:45:36.298Z,11.20
2023-04-16T17:48:02.841Z,13.23
2023-04-16T17:50:29.313Z,11.55
2023-04-16T17:52:55.941Z,13.13
2023-04-16T17:55:22.328Z,12.65
2023-04-16T17:57:48.828Z,12.02
2023-04-16T18:00:16.198Z,13.55
2023-04-16T18:02:45.467Z,12.48
2023-04-16T18:05:12.113Z,12.93
2023-04-16T18:07:39.058Z,14.32
2023-04-16T18:10:06.382Z,14.13
2023-04-16T18:12:32.788Z,13.57
2023-04-16T18:14:59.193Z,13.25
2023-04-16T18:17:25.662Z,12.82
2023-04-16T18:19:52.111Z,14.00
2023-04-16T18:22:18.547Z,16.63
2023-04-16T18:24:44.951Z,13.25
2023-04-16T18:27:12.000Z,13.35
2023-04-16T18:29:40.400Z,12.63
2023-04-16T18:32:09.866Z,13.18
2023-04-16T18:34:38.374Z,13.40
2023-04-16T18:37:04.963Z,12.98
2023-04-16T18:39:33.465Z,12.45
2023-04-16T18:41:59.851Z,12.57
2023-04-16T18:44:26.349Z,12.23
2023-04-16T18:46:52.741Z,12.07
2023-04-16T18:49:19.145Z,14.95
2023-04-16T18:51:45.515Z,13.63
2023-04-16T18:54:11.891Z,12.38
2023-04-16T18:56:38.339Z,12.38
2023-04-16T18:59:04.785Z,12.30
2023-04-16T19:01:31.391Z,13.60
2023-04-16T19:03:58.056Z,12.48
2023-04-16T19:06:24.496Z,12.50
2023-04-16T19:08:50.932Z,13.48
2023-04-16T19:11:17.298Z,13.48
2023-04-16T19:13:43.774Z,12.40
2023-04-16T19:16:12.198Z,12.80
2023-04-16T19:18:39.010Z,13.60
2023-04-16T19:21:06.863Z,16.58
2023-04-16T19:23:33.261Z,13.32
2023-04-16T19:26:01.278Z,12.40
2023-04-16T19:28:28.288Z,13.95
2023-04-16T19:30:54.721Z,12.95
2023-04-16T19:33:21.470Z,15.38
2023-04-16T19:35:47.897Z,41.60
2023-04-16T19:38:14.483Z,45.90
2023-04-16T19:40:44.810Z,33.55
2023-04-16T19:43:11.234Z,27.00
2023-04-16T19:45:43.283Z,32.08
2023-04-16T19:48:09.797Z,22.23
2023-04-16T19:50:39.044Z,16.23
2023-04-16T19:53:05.640Z,14.38
2023-04-16T19:55:32.056Z,14.27
2023-04-16T19:58:04.783Z,15.32
2023-04-16T20:00:36.566Z,12.38
2023-04-16T20:03:04.249Z,13.35
2023-04-16T20:05:30.892Z,12.82
2023-04-16T20:07:57.401Z,13.05
2023-04-16T20:10:24.167Z,11.82
2023-04-16T20:12:51.330Z,13.88
2023-04-16T20:15:18.782Z,11.98
2023-04-16T20:17:45.388Z,11.88
2023-04-16T20:20:11.896Z,12.10
2023-04-16T20:22:39.137Z,14.57
2023-04-16T20:25:06.330Z,12.68
2023-04-16T20:27:33.388Z,13.02
2023-04-16T20:30:00.875Z,13.88
2023-04-16T20:32:28.052Z,14.05
2023-04-16T20:34:57.359Z,13.35
2023-04-16T20:37:23.843Z,13.98
2023-04-16T20:39:53.998Z,12.68
2023-04-16T20:42:22.630Z,16.80
2023-04-16T20:44:56.169Z,14.65
2023-04-16T20:47:22.992Z,14.15
2023-04-16T20:49:49.553Z,15.15
2023-04-16T20:52:16.702Z,16.02
2023-04-16T20:54:43.122Z,13.90
2023-04-16T20:57:09.575Z,13.30
2023-04-16T20:59:38.854Z,12.88
2023-04-16T21:02:05.831Z,13.88
2023-04-16T21:04:32.397Z,13.48
2023-04-16T21:06:58.844Z,12.85
2023-04-16T21:09:25.303Z,14.52
2023-04-16T21:11:51.696Z,13.85
2023-04-16T21:14:18.514Z,13.73
2023-04-16T21:16:44.966Z,14.05
2023-04-16T21:19:11.588Z,14.18
2023-04-16T21:21:38.833Z,15.02
2023-04-16T21:24:05.655Z,15.05
2023-04-16T21:26:32.105Z,14.57
2023-04-16T21:28:58.581Z,13.88
2023-04-16T21:31:25.042Z,14.90
2023-04-16T21:33:51.484Z,13.70
2023-04-16T21:36:17.922Z,13.57
2023-04-16T21:38:44.496Z,13.07
2023-04-16T21:41:11.260Z,13.38
2023-04-16T21:43:37.675Z,14.40
2023-04-16T21:46:04.123Z,14.05
2023-04-16T21:48:30.575Z,15.25
2023-04-16T21:50:59.095Z,15.38
2023-04-16T21:53:27.884Z,14.23
2023-04-16T21:55:54.296Z,15.90
2023-04-16T21:58:20.918Z,16.70
2023-04-16T22:00:47.454Z,15.98
2023-04-16T22:03:14.405Z,16.45
2023-04-16T22:05:41.067Z,17.20
2023-04-16T22:08:23.614Z,16.63
2023-04-16T22:10:51.210Z,16.55
2023-04-16T22:13:17.797Z,16.95
2023-04-16T22:15:44.213Z,17.13
2023-04-16T22:18:11.451Z,17.42
2023-04-16T22:20:39.150Z,18.55
2023-04-16T22:23:06.697Z,17.33
2023-04-16T22:25:33.458Z,17.27
2023-04-16T22:28:01.501Z,17.90
2023-04-16T22:30:27.988Z,17.23
2023-04-16T22:32:54.519Z,16.95
2023-04-16T22:35:21.045Z,18.25
2023-04-16T22:37:47.455Z,17.48
2023-04-16T22:40:14.011Z,17.27
2023-04-16T22:42:40.428Z,17.70
2023-04-16T22:45:07.476Z,16.80
2023-04-16T22:47:33.972Z,16.77
2023-04-16T22:50:00.737Z,16.88
2023-04-16T22:52:30.126Z,16.65
2023-04-16T22:54:56.540Z,17.35
2023-04-16T22:57:25.495Z,17.13
2023-04-16T22:59:53.040Z,17.77
2023-04-16T23:02:20.668Z,17.98
2023-04-16T23:04:47.976Z,18.73
2023-04-16T23:07:15.527Z,18.13
2023-04-16T23:09:42.357Z,17.30
2023-04-16T23:12:08.874Z,17.65
2023-04-16T23:14:36.791Z,20.27
2023-04-16T23:17:03.413Z,18.60
2023-04-16T23:19:31.103Z,18.42
2023-04-16T23:21:57.808Z,19.98
2023-04-16T23:24:24.245Z,21.73
2023-04-16T23:26:52.456Z,22.13
2023-04-16T23:29:19.462Z,23.35
2023-04-16T23:31:45.872Z,24.85
2023-04-16T23:34:12.329Z,22.98
2023-04-16T23:36:39.246Z,23.05
2023-04-16T23:39:05.672Z,25.83
2023-04-16T23:41:32.079Z,23.67
2023-04-16T23:43:58.448Z,24.45
2023-04-16T23:46:24.908Z,25.13
2023-04-16T23:48:52.632Z,23.38
2023-04-16T23:51:19.078Z,24.30
2023-04-16T23:53:45.454Z,22.92
2023-04-16T23:56:12.041Z,25.05
2023-04-16T23:58:38.458Z,24.42
